Time;durP1;ratioP1;P1;durP2;ratioP2;P2;SDS_P1;SDS_P2;PMS_P1;PMS_P2;Temp;Humidity;BMP_temperature;BMP_pressure;BME280_temperature;BME280_humidity;BME280_pressure;Samples;Min_cycle;Max_cycle;Signal;HPM_P1;HPM_P2
2022/07/19 00:01:53;;;;;;;6.00;4.47;;;;;;;21.64;67.30;98521.50;4125202;28;20652;-84
2022/07/19 00:03:58;;;;;;;6.23;4.47;;;;;;;21.62;66.76;98522.66;4122716;28;20753;-84
2022/07/19 00:06:01;;;;;;;6.43;4.50;;;;;;;21.59;66.72;98526.50;4108581;28;20919;-85
2022/07/19 00:08:05;;;;;;;5.83;4.50;;;;;;;21.54;67.81;98526.13;4108714;28;20684;-84
2022/07/19 00:10:10;;;;;;;5.03;4.53;;;;;;;21.47;68.26;98525.13;4126567;28;20984;-85
2022/07/19 00:12:13;;;;;;;6.50;4.53;;;;;;;21.44;68.34;98528.06;4108436;28;20761;-85
2022/07/19 00:14:17;;;;;;;5.20;4.70;;;;;;;21.40;67.81;98526.72;4108467;28;20733;-84
2022/07/19 00:16:20;;;;;;;9.13;4.97;;;;;;;21.37;68.75;98524.38;4111520;28;20660;-84
2022/07/19 00:18:25;;;;;;;5.47;4.40;;;;;;;21.34;68.10;98522.06;4089882;28;20693;-84
2022/07/19 00:20:30;;;;;;;6.90;4.10;;;;;;;21.33;67.26;98533.69;4125012;28;20764;-85
2022/07/19 00:22:33;;;;;;;4.90;4.40;;;;;;;21.28;68.50;98530.66;4110514;28;20861;-84
2022/07/19 00:24:36;;;;;;;6.03;4.60;;;;;;;21.27;67.78;98531.66;4125903;28;20662;-84
2022/07/19 00:26:39;;;;;;;7.10;5.07;;;;;;;21.24;67.94;98528.47;4110113;28;20651;-85
2022/07/19 00:28:42;;;;;;;7.83;4.73;;;;;;;21.22;68.40;98533.13;4124142;28;20652;-85
2022/07/19 00:30:45;;;;;;;7.00;4.43;;;;;;;21.20;67.37;98535.13;4107741;28;20697;-84
2022/07/19 00:32:52;;;;;;;6.03;4.63;;;;;;;21.19;67.02;98532.63;4089842;28;21327;-84
2022/07/19 00:34:55;;;;;;;5.37;4.43;;;;;;;21.15;67.87;98532.09;4105175;28;20676;-84
2022/07/19 00:37:01;;;;;;;5.73;4.53;;;;;;;21.14;68.95;98537.56;4123506;28;21236;-84
2022/07/19 00:39:04;;;;;;;8.83;4.63;;;;;;;21.10;68.44;98530.91;4110491;28;20658;-84
2022/07/19 00:41:07;;;;;;;5.63;4.60;;;;;;;21.06;68.09;98527.72;4125720;28;20653;-85
2022/07/19 00:43:11;;;;;;;6.33;4.40;;;;;;;21.02;68.38;98529.06;4108051;28;21317;-84
2022/07/19 00:45:14;;;;;;;5.10;4.27;;;;;;;20.99;68.86;98529.38;4108924;28;20723;-84
2022/07/19 00:47:17;;;;;;;7.97;4.87;;;;;;;20.94;67.43;98525.53;4122806;28;20665;-85
2022/07/19 00:49:20;;;;;;;5.50;4.27;;;;;;;20.89;69.49;98530.47;4126814;28;20661;-84
2022/07/19 00:51:23;;;;;;;6.30;4.50;;;;;;;20.86;68.60;98522.84;4107166;28;21360;-84
2022/07/19 00:53:28;;;;;;;6.87;5.27;;;;;;;20.83;68.58;98525.78;4094404;28;20653;-84
2022/07/19 00:55:32;;;;;;;6.63;5.13;;;;;;;20.78;68.20;98525.44;4110984;28;21231;-84
2022/07/19 00:57:37;;;;;;;7.17;5.10;;;;;;;20.75;68.50;98519.59;4124957;28;20727;-84
2022/07/19 00:59:42;;;;;;;6.47;5.43;;;;;;;20.68;69.00;98523.88;4104053;28;20662;-84
2022/07/19 01:01:45;;;;;;;8.00;4.93;;;;;;;20.62;68.52;98520.00;4103638;28;20651;-84
2022/07/19 01:03:49;;;;;;;6.73;4.90;;;;;;;20.60;68.52;98529.13;4091462;28;21030;-84
2022/07/19 01:05:52;;;;;;;6.50;4.97;;;;;;;20.55;69.79;98524.28;4109230;28;20680;-84
2022/07/19 01:07:55;;;;;;;6.90;4.77;;;;;;;20.52;70.80;98519.28;4128597;28;20692;-85
2022/07/19 01:10:00;;;;;;;6.00;4.53;;;;;;;20.48;69.78;98522.41;4109467;28;20642;-84
2022/07/19 01:12:04;;;;;;;5.90;4.50;;;;;;;20.46;70.03;98521.69;4124081;28;20648;-84
2022/07/19 01:14:07;;;;;;;8.20;4.77;;;;;;;20.42;70.47;98523.03;4122805;28;20650;-84
2022/07/19 01:16:11;;;;;;;6.57;4.80;;;;;;;20.38;69.67;98526.97;4125135;28;20743;-84
2022/07/19 01:18:14;;;;;;;5.20;4.80;;;;;;;20.35;70.15;98520.13;4125604;28;20662;-84
2022/07/19 01:20:18;;;;;;;5.03;4.53;;;;;;;20.33;69.68;98524.78;4110964;28;21023;-85
2022/07/19 01:22:22;;;;;;;6.30;4.40;;;;;;;20.31;69.37;98523.25;4127214;28;21243;-84
2022/07/19 01:24:26;;;;;;;7.03;4.90;;;;;;;20.29;71.08;98516.47;4123441;28;20716;-84
2022/07/19 01:26:29;;;;;;;4.17;3.73;;;;;;;20.26;70.55;98514.94;4105666;28;20654;-84
2022/07/19 01:28:32;;;;;;;6.40;4.57;;;;;;;20.24;70.40;98516.09;4122259;28;20652;-84
2022/07/19 01:30:36;;;;;;;5.50;4.50;;;;;;;20.20;69.13;98517.38;4107945;28;20654;-84
2022/07/19 01:32:39;;;;;;;6.80;4.23;;;;;;;20.19;69.35;98515.69;4109866;28;20669;-85
2022/07/19 01:34:42;;;;;;;4.97;4.23;;;;;;;20.17;70.94;98522.97;4123183;28;20649;-84
2022/07/19 01:36:45;;;;;;;6.93;4.40;;;;;;;20.15;70.63;98514.38;4108925;28;20646;-84
2022/07/19 01:38:50;;;;;;;5.00;4.50;;;;;;;20.11;71.00;98519.13;4110804;28;20646;-84
2022/07/19 01:40:53;;;;;;;8.83;4.30;;;;;;;20.08;70.01;98513.31;4123829;28;20736;-84
2022/07/19 01:42:56;;;;;;;5.27;4.10;;;;;;;20.07;69.18;98512.47;4123712;28;20661;-84
2022/07/19 01:44:59;;;;;;;6.37;4.10;;;;;;;20.06;70.78;98515.28;4124240;28;20646;-84
2022/07/19 01:47:02;;;;;;;5.37;4.40;;;;;;;20.05;70.30;98521.56;4124188;28;20707;-84
2022/07/19 01:49:05;;;;;;;5.20;4.53;;;;;;;20.04;69.28;98517.22;4108727;28;20641;-85
2022/07/19 01:51:08;;;;;;;6.07;4.67;;;;;;;20.03;69.11;98518.22;4108850;28;20677;-85
2022/07/19 01:53:11;;;;;;;5.70;4.67;;;;;;;20.03;69.87;98516.41;4111439;28;20644;-84
2022/07/19 01:55:16;;;;;;;6.40;4.20;;;;;;;20.00;70.18;98511.41;4110733;28;20649;-84
2022/07/19 01:57:19;;;;;;;6.93;4.63;;;;;;;20.00;70.39;98515.88;4104951;28;21244;-84
2022/07/19 01:59:22;;;;;;;5.03;4.47;;;;;;;19.98;69.88;98523.13;4110093;28;20745;-84
2022/07/19 02:01:25;;;;;;;9.23;4.70;;;;;;;19.95;70.62;98518.13;4124221;28;20669;-85
2022/07/19 02:03:28;;;;;;;5.10;4.23;;;;;;;19.92;70.56;98519.28;4121194;28;21303;-84
2022/07/19 02:05:31;;;;;;;6.10;4.23;;;;;;;19.90;70.64;98520.41;4088823;28;20663;-84
2022/07/19 02:07:36;;;;;;;6.50;4.70;;;;;;;19.87;71.36;98507.47;4109980;28;20658;-84
2022/07/19 02:09:39;;;;;;;5.40;4.23;;;;;;;19.84;71.25;98515.69;4108008;28;20673;-85
2022/07/19 02:11:43;;;;;;;5.67;4.60;;;;;;;19.81;70.51;98516.00;4122260;28;20726;-84
2022/07/19 02:13:46;;;;;;;5.70;4.90;;;;;;;19.80;71.32;98514.34;4109192;28;21021;-84
2022/07/19 02:15:50;;;;;;;5.00;4.50;;;;;;;19.78;70.60;98516.28;4123872;28;21068;-85
2022/07/19 02:17:53;;;;;;;5.87;4.10;;;;;;;19.74;71.66;98517.59;4126796;28;20674;-84
2022/07/19 02:19:56;;;;;;;5.33;4.83;;;;;;;19.72;71.04;98510.78;4110853;28;20736;-84
2022/07/19 02:21:59;;;;;;;7.40;5.57;;;;;;;19.68;71.53;98507.63;4129401;28;20688;-84
2022/07/19 02:24:07;;;;;;;6.90;4.83;;;;;;;19.66;71.01;98509.56;4113437;28;20673;-85
2022/07/19 02:26:10;;;;;;;5.27;4.73;;;;;;;19.62;70.97;98497.63;4129356;28;20646;-84
2022/07/19 02:28:14;;;;;;;5.90;4.50;;;;;;;19.59;70.30;98505.00;4126540;28;20664;-84
2022/07/19 02:30:17;;;;;;;6.63;4.90;;;;;;;19.56;71.17;98506.16;4110027;28;20660;-85
2022/07/19 02:32:20;;;;;;;6.00;5.10;;;;;;;19.52;72.04;98504.78;4127248;28;20692;-84
2022/07/19 02:34:24;;;;;;;6.50;4.63;;;;;;;19.50;72.20;98503.25;4110628;28;20657;-85
2022/07/19 02:36:27;;;;;;;7.53;5.27;;;;;;;19.49;71.96;98501.63;4128565;28;20685;-84
2022/07/19 02:38:30;;;;;;;5.77;5.20;;;;;;;19.48;71.87;98510.53;4123083;28;20661;-84
2022/07/19 02:40:33;;;;;;;5.53;5.03;;;;;;;19.43;72.33;98496.91;4111133;28;21338;-84
2022/07/19 02:42:36;;;;;;;6.27;5.00;;;;;;;19.44;71.79;98498.59;4123687;28;20657;-83
2022/07/19 02:44:41;;;;;;;8.17;5.03;;;;;;;19.43;71.55;98504.84;4127167;28;20694;-84
2022/07/19 02:46:44;;;;;;;6.17;5.30;;;;;;;19.40;71.44;98503.34;4126253;28;20664;-84
2022/07/19 02:48:47;;;;;;;6.37;4.87;;;;;;;19.38;71.00;98513.25;4122577;28;21086;-84
2022/07/19 02:50:55;;;;;;;6.90;5.77;;;;;;;19.37;72.46;98503.63;4112967;28;20672;-84
2022/07/19 02:52:58;;;;;;;6.63;4.33;;;;;;;19.35;71.94;98501.28;4112927;28;20652;-84
2022/07/19 02:55:01;;;;;;;7.50;5.03;;;;;;;19.33;71.68;98506.72;4094134;29;20713;-84
2022/07/19 02:57:04;;;;;;;6.90;5.13;;;;;;;19.30;70.95;98501.72;4128796;28;20702;-84
2022/07/19 02:59:07;;;;;;;5.90;5.30;;;;;;;19.30;71.88;98506.19;4110806;28;20663;-84
2022/07/19 03:01:13;;;;;;;6.03;4.80;;;;;;;19.28;71.48;98506.34;4112150;28;20767;-84
2022/07/19 03:05:38;;;;;;;6.00;5.40;;;;;;;19.23;72.29;98505.97;4110286;28;20674;-84
2022/07/19 03:07:41;;;;;;;6.13;4.97;;;;;;;19.19;71.89;98507.22;4125801;28;21059;-84
2022/07/19 03:09:45;;;;;;;8.23;5.63;;;;;;;19.18;72.64;98499.44;4109056;28;20669;-84
2022/07/19 03:11:48;;;;;;;5.63;5.10;;;;;;;19.15;72.16;98503.19;4109451;28;20745;-84
2022/07/19 03:13:51;;;;;;;7.20;5.23;;;;;;;19.12;72.15;98503.50;4111499;28;20640;-84
2022/07/19 03:15:55;;;;;;;6.87;5.53;;;;;;;19.10;72.23;98505.47;4107967;28;20683;-84
2022/07/19 03:17:59;;;;;;;6.70;5.67;;;;;;;19.09;72.31;98498.53;4108435;28;20698;-84
2022/07/19 03:20:03;;;;;;;6.50;5.40;;;;;;;19.07;71.40;98497.00;4127678;28;20653;-84
2022/07/19 03:22:06;;;;;;;8.17;5.80;;;;;;;19.07;71.26;98497.00;4095639;28;20638;-84
2022/07/19 03:24:10;;;;;;;6.70;5.87;;;;;;;19.06;71.40;98498.81;4123863;28;20664;-85
2022/07/19 03:26:13;;;;;;;6.33;5.73;;;;;;;19.02;72.47;98497.44;4109820;28;20648;-84
2022/07/19 03:28:16;;;;;;;7.83;5.50;;;;;;;18.99;72.23;98494.22;4125983;28;21256;-84
2022/07/19 03:30:19;;;;;;;7.60;6.13;;;;;;;18.96;72.54;98499.81;4127337;28;20657;-84
2022/07/19 03:32:22;;;;;;;7.80;5.90;;;;;;;18.94;72.49;98496.47;4127404;28;20655;-84
2022/07/19 03:34:28;;;;;;;8.70;6.13;;;;;;;18.90;73.13;98497.75;4125242;28;21070;-84
2022/07/19 03:36:31;;;;;;;6.43;5.47;;;;;;;18.85;73.08;98507.91;4124512;28;20731;-84
2022/07/19 03:38:35;;;;;;;6.10;5.27;;;;;;;18.81;73.90;98495.13;4123704;28;20706;-84
2022/07/19 03:40:38;;;;;;;7.60;6.10;;;;;;;18.78;73.26;98501.56;4125257;28;20653;-84
2022/07/19 03:42:42;;;;;;;7.00;5.97;;;;;;;18.77;73.96;98499.88;4110223;28;20660;-85
2022/07/19 03:44:45;;;;;;;6.47;5.83;;;;;;;18.77;73.59;98507.81;4107550;28;20714;-86
2022/07/19 03:46:48;;;;;;;6.80;6.13;;;;;;;18.77;73.71;98499.06;4121691;28;20643;-86
2022/07/19 03:48:51;;;;;;;7.60;6.50;;;;;;;18.75;72.86;98496.56;4107526;28;20746;-86
2022/07/19 03:50:55;;;;;;;7.67;6.80;;;;;;;18.75;73.82;98496.56;4125161;28;20657;-86
2022/07/19 03:52:58;;;;;;;10.27;6.57;;;;;;;18.73;73.67;98503.78;4093096;28;21009;-86
2022/07/19 03:55:01;;;;;;;9.10;6.50;;;;;;;18.71;73.78;98495.16;4091659;28;20645;-86
2022/07/19 03:57:04;;;;;;;7.53;6.60;;;;;;;18.71;73.49;98497.00;4122532;28;21284;-86
2022/07/19 03:59:08;;;;;;;6.60;6.00;;;;;;;18.71;73.53;98497.00;4107566;28;20657;-86
2022/07/19 04:01:11;;;;;;;7.10;6.40;;;;;;;18.69;74.23;98505.06;4109883;28;20661;-86
2022/07/19 04:03:14;;;;;;;7.70;6.90;;;;;;;18.68;74.25;98510.50;4122321;28;20743;-87
2022/07/19 04:05:17;;;;;;;8.20;7.20;;;;;;;18.65;73.81;98510.78;4125637;28;20647;-86
2022/07/19 04:07:22;;;;;;;7.60;6.43;;;;;;;18.63;74.04;98503.00;4109471;28;21297;-86
2022/07/19 04:09:25;;;;;;;7.53;6.70;;;;;;;18.63;74.18;98510.94;4125890;28;20656;-86
2022/07/19 04:11:28;;;;;;;10.40;6.87;;;;;;;18.65;74.64;98511.59;4126673;28;21445;-86
2022/07/19 04:13:33;;;;;;;7.33;6.63;;;;;;;18.68;74.27;98513.97;4125453;28;20972;-86
2022/07/19 04:15:36;;;;;;;7.30;6.60;;;;;;;18.70;74.47;98509.38;4095086;28;20695;-86
2022/07/19 04:17:48;;;;;;;8.40;6.90;;;;;;;18.73;73.95;98509.06;4125151;28;20687;-86
2022/07/19 04:19:51;;;;;;;7.73;6.93;;;;;;;18.77;74.01;98514.91;4125880;28;20663;-86
2022/07/19 04:21:54;;;;;;;11.40;7.17;;;;;;;18.79;73.81;98512.94;4122851;28;20647;-86
2022/07/19 04:23:58;;;;;;;11.40;6.80;;;;;;;18.82;73.96;98523.25;4109185;28;20656;-86
2022/07/19 04:26:02;;;;;;;8.40;7.07;;;;;;;18.87;74.54;98526.28;4125547;28;20652;-86
2022/07/19 04:28:05;;;;;;;7.63;6.83;;;;;;;18.88;74.26;98519.03;4120029;28;20655;-86
2022/07/19 04:30:09;;;;;;;7.53;6.73;;;;;;;18.93;74.13;98518.63;4119615;28;20685;-86
2022/07/19 04:32:12;;;;;;;6.97;6.13;;;;;;;18.96;74.39;98527.06;4109954;28;21006;-87
2022/07/19 04:34:22;;;;;;;8.73;6.27;;;;;;;19.00;73.31;98514.38;4123865;28;22473;-86
2022/07/19 04:36:25;;;;;;;7.50;6.80;;;;;;;19.05;72.66;98520.13;4109239;28;20692;-86
2022/07/19 04:38:28;;;;;;;6.83;6.13;;;;;;;19.06;72.04;98524.41;4108523;28;20719;-87
2022/07/19 04:40:33;;;;;;;9.00;6.60;;;;;;;19.09;73.22;98529.41;4107317;28;20675;-87
2022/07/19 04:42:36;;;;;;;11.47;7.60;;;;;;;19.10;74.54;98525.81;4126547;28;21048;-87
2022/07/19 04:44:39;;;;;;;9.20;6.77;;;;;;;19.12;74.07;98521.19;4126221;28;20659;-86
2022/07/19 04:46:42;;;;;;;8.70;6.73;;;;;;;19.14;74.21;98530.66;4124294;28;21108;-86
2022/07/19 04:48:49;;;;;;;7.00;6.30;;;;;;;19.16;74.35;98538.44;4109159;28;20663;-87
2022/07/19 04:50:52;;;;;;;7.20;6.43;;;;;;;19.22;73.50;98535.22;4107715;28;20679;-86
2022/07/19 04:52:55;;;;;;;7.83;7.10;;;;;;;19.29;72.99;98533.63;4105483;28;20640;-86
2022/07/19 04:54:58;;;;;;;7.87;7.07;;;;;;;19.36;72.76;98530.25;4108323;28;20733;-86
2022/07/19 04:57:03;;;;;;;8.73;7.37;;;;;;;19.41;73.06;98528.00;4124929;28;21020;-86
2022/07/19 04:59:06;;;;;;;7.93;7.13;;;;;;;19.49;74.28;98531.56;4106535;28;20719;-86
2022/07/19 05:01:09;;;;;;;8.60;7.10;;;;;;;19.56;73.12;98535.28;4104704;28;20656;-86
2022/07/19 05:03:12;;;;;;;8.27;7.47;;;;;;;19.62;72.37;98533.84;4109047;28;20656;-86
2022/07/19 05:05:15;;;;;;;11.27;7.60;;;;;;;19.64;71.05;98527.41;4111938;28;20653;-86
2022/07/19 05:07:18;;;;;;;7.57;6.50;;;;;;;19.66;72.12;98536.03;4123180;28;20714;-86
2022/07/19 05:09:21;;;;;;;7.80;7.00;;;;;;;19.74;72.79;98538.78;4106322;28;20670;-87
2022/07/19 05:11:25;;;;;;;8.40;7.60;;;;;;;19.78;73.31;98537.47;4123616;28;20690;-86
2022/07/19 05:13:29;;;;;;;8.73;6.90;;;;;;;19.83;73.21;98531.72;4122845;28;20655;-86
2022/07/19 05:15:33;;;;;;;9.13;7.90;;;;;;;19.88;72.93;98527.69;4109561;28;20659;-86
2022/07/19 05:17:36;;;;;;;9.73;7.80;;;;;;;19.90;71.02;98534.47;4123306;28;20682;-89
2022/07/19 05:19:39;;;;;;;8.50;7.33;;;;;;;19.92;70.19;98531.69;4122303;28;21255;-86
2022/07/19 05:21:42;;;;;;;8.77;7.60;;;;;;;19.98;71.60;98528.44;4104977;28;20739;-86
2022/07/19 05:23:45;;;;;;;9.90;7.50;;;;;;;20.06;72.10;98533.81;4120984;28;20690;-86
2022/07/19 05:25:48;;;;;;;11.13;8.40;;;;;;;20.13;71.70;98533.06;4122465;28;20666;-86
2022/07/19 05:27:51;;;;;;;10.03;7.37;;;;;;;20.21;71.15;98542.91;4107138;28;20727;-86
2022/07/19 05:29:56;;;;;;;8.90;8.10;;;;;;;20.26;71.47;98538.78;4125901;28;20975;-85
2022/07/19 05:31:59;;;;;;;11.63;8.10;;;;;;;20.32;70.86;98534.69;4104200;28;20661;-88
2022/07/19 05:34:02;;;;;;;8.83;7.80;;;;;;;20.37;70.75;98530.59;4106025;28;20701;-87
2022/07/19 05:36:08;;;;;;;10.47;7.57;;;;;;;20.47;70.86;98528.69;4090537;28;20684;-87
2022/07/19 05:38:11;;;;;;;9.20;8.30;;;;;;;20.59;71.82;98536.22;4106909;28;20657;-86
2022/07/19 05:40:14;;;;;;;9.37;8.00;;;;;;;20.71;71.05;98526.22;4105971;28;20681;-87
2022/07/19 05:42:18;;;;;;;8.73;7.83;;;;;;;20.83;70.62;98528.44;4123706;28;20645;-86
2022/07/19 05:44:21;;;;;;;8.33;7.13;;;;;;;20.97;71.44;98525.19;4119980;28;20645;-87
2022/07/19 05:46:25;;;;;;;8.53;7.73;;;;;;;21.14;70.63;98533.09;4106601;28;20652;-86
2022/07/19 05:48:29;;;;;;;11.30;7.83;;;;;;;21.39;69.77;98538.34;4105872;28;20664;-86
2022/07/19 05:50:32;;;;;;;10.90;7.23;;;;;;;21.70;69.32;98528.84;4121285;28;20661;-87
2022/07/19 05:52:35;;;;;;;12.87;8.07;;;;;;;22.07;69.86;98534.53;4125193;28;20660;-87
2022/07/19 05:54:40;;;;;;;12.63;8.13;;;;;;;22.46;68.18;98539.06;4125249;28;20710;-86
2022/07/19 05:56:43;;;;;;;14.53;8.17;;;;;;;22.81;67.05;98542.19;4108942;28;20699;-86
2022/07/19 05:58:46;;;;;;;8.70;7.80;;;;;;;23.17;66.31;98544.28;4125080;28;20658;-86
2022/07/19 06:03:11;;;;;;;8.60;7.60;;;;;;;23.86;65.86;98543.31;4124837;28;21787;-87
2022/07/19 06:05:14;;;;;;;8.10;7.30;;;;;;;24.18;66.23;98535.91;4126614;28;20640;-86
2022/07/19 06:07:17;;;;;;;8.90;7.60;;;;;;;24.45;63.95;98540.72;4110980;28;21087;-86
2022/07/19 06:09:20;;;;;;;8.63;7.73;;;;;;;24.70;62.83;98543.00;4120753;28;21379;-88
2022/07/19 06:11:23;;;;;;;9.77;8.87;;;;;;;24.99;62.79;98551.06;4106052;28;20653;-88
2022/07/19 06:13:27;;;;;;;8.00;7.23;;;;;;;25.23;62.06;98548.94;4113026;28;20657;-87
2022/07/19 06:15:30;;;;;;;8.80;7.70;;;;;;;25.43;62.72;98547.38;4108548;28;21161;-86
2022/07/19 06:17:33;;;;;;;8.30;7.00;;;;;;;25.75;62.48;98549.66;4130092;28;21384;-86
2022/07/19 06:19:38;;;;;;;8.23;7.30;;;;;;;26.05;61.71;98545.88;4110821;28;20663;-86
2022/07/19 06:21:41;;;;;;;10.20;7.37;;;;;;;26.32;59.99;98544.13;4128366;28;20627;-86
2022/07/19 06:23:45;;;;;;;7.53;6.80;;;;;;;26.61;60.30;98546.66;4127134;28;20749;-86
2022/07/19 06:25:48;;;;;;;8.17;7.47;;;;;;;26.88;60.10;98543.16;4124106;28;21257;-86
2022/07/19 06:27:52;;;;;;;8.20;7.37;;;;;;;27.12;59.04;98547.09;4109826;28;20649;-86
2022/07/19 06:29:55;;;;;;;7.77;6.83;;;;;;;27.35;59.97;98544.09;4126373;28;20654;-86
2022/07/19 06:31:58;;;;;;;9.50;7.17;;;;;;;27.53;57.61;98551.47;4109026;28;20652;-86
2022/07/19 06:34:01;;;;;;;7.87;7.07;;;;;;;27.72;59.30;98541.84;4127570;28;20667;-87
2022/07/19 06:36:06;;;;;;;7.90;6.70;;;;;;;27.89;57.67;98543.13;4126629;28;21241;-87
2022/07/19 06:38:09;;;;;;;9.37;8.37;;;;;;;28.10;58.92;98538.47;4109332;28;20658;-86
2022/07/19 06:40:12;;;;;;;8.60;7.70;;;;;;;28.30;57.66;98532.13;4125615;28;22658;-86
2022/07/19 06:42:15;;;;;;;8.50;7.60;;;;;;;28.41;56.70;98539.56;4109762;28;20647;-86
2022/07/19 06:44:20;;;;;;;8.50;7.70;;;;;;;28.49;58.54;98537.53;4110768;28;20661;-87
2022/07/19 06:46:23;;;;;;;8.07;7.37;;;;;;;28.66;56.54;98536.13;4126770;28;20678;-86
2022/07/19 06:48:26;;;;;;;9.73;7.57;;;;;;;28.91;58.86;98537.13;4127913;28;20659;-87
2022/07/19 06:50:29;;;;;;;9.07;6.50;;;;;;;29.08;57.20;98536.50;4126679;28;20677;-86
2022/07/19 06:52:45;;;;;;;7.90;7.10;;;;;;;29.32;56.02;98535.84;4108236;28;20984;-86
2022/07/19 06:54:48;;;;;;;7.50;6.80;;;;;;;29.56;58.41;98538.66;4120278;28;20642;-85
2022/07/19 06:56:51;;;;;;;7.37;6.67;;;;;;;29.79;55.13;98538.16;4120779;28;20709;-85
2022/07/19 06:58:54;;;;;;;8.70;6.97;;;;;;;29.96;55.16;98535.63;4092653;28;20714;-85
2022/07/19 07:00:58;;;;;;;7.53;6.73;;;;;;;30.18;55.23;98528.03;4127801;28;20750;-85
2022/07/19 07:03:01;;;;;;;8.90;6.80;;;;;;;30.39;54.69;98531.25;4101194;28;20667;-85
2022/07/19 07:05:05;;;;;;;7.10;6.50;;;;;;;30.57;55.06;98545.59;4122903;28;20663;-85
2022/07/19 07:07:08;;;;;;;7.77;6.97;;;;;;;30.80;53.55;98539.63;4127330;28;20727;-85
2022/07/19 07:09:12;;;;;;;7.57;6.57;;;;;;;30.94;52.99;98537.44;4125462;28;20662;-84
2022/07/19 07:11:15;;;;;;;7.40;6.13;;;;;;;31.17;53.72;98534.94;4110684;28;20717;-85
2022/07/19 07:13:19;;;;;;;7.97;6.80;;;;;;;31.35;52.83;98539.50;4125006;28;20647;-85
2022/07/19 07:15:22;;;;;;;7.50;6.80;;;;;;;31.53;52.45;98540.41;4125773;28;21209;-85
2022/07/19 07:17:25;;;;;;;7.90;6.57;;;;;;;31.68;52.80;98535.41;4123771;28;20707;-85
2022/07/19 07:19:28;;;;;;;7.53;6.80;;;;;;;31.88;53.55;98529.53;4124137;28;20686;-85
2022/07/19 07:21:34;;;;;;;7.43;6.57;;;;;;;31.99;51.88;98528.78;4110951;28;20668;-84
2022/07/19 07:23:38;;;;;;;6.97;6.37;;;;;;;32.11;51.68;98531.56;4125541;28;20651;-85
2022/07/19 07:25:42;;;;;;;7.27;6.30;;;;;;;32.23;51.28;98527.84;4108942;28;20702;-85
2022/07/19 07:27:46;;;;;;;7.23;6.53;;;;;;;32.40;52.33;98526.97;4123758;28;20642;-85
2022/07/19 07:29:49;;;;;;;7.37;5.80;;;;;;;32.60;51.40;98526.69;4123434;28;20659;-85
2022/07/19 07:31:52;;;;;;;7.60;5.67;;;;;;;32.72;49.89;98519.41;4107871;28;20656;-85
2022/07/19 07:33:55;;;;;;;6.43;5.83;;;;;;;32.92;50.63;98518.00;4107205;28;20733;-85
2022/07/19 07:35:58;;;;;;;10.00;6.10;;;;;;;32.99;51.07;98518.75;4119393;28;20691;-85
2022/07/19 07:38:01;;;;;;;6.93;6.17;;;;;;;33.20;53.13;98521.69;4126531;28;20686;-85
2022/07/19 07:40:06;;;;;;;10.93;6.13;;;;;;;33.39;49.95;98518.63;4123413;28;20666;-85
2022/07/19 07:42:10;;;;;;;7.87;5.50;;;;;;;33.57;52.51;98517.66;4108420;28;20667;-85
2022/07/19 07:44:15;;;;;;;8.53;6.13;;;;;;;33.75;51.74;98512.06;4107430;28;20747;-85
2022/07/19 07:46:18;;;;;;;7.50;5.70;;;;;;;33.89;50.41;98512.38;4112338;28;21249;-85
2022/07/19 07:48:21;;;;;;;5.80;5.30;;;;;;;34.00;48.57;98508.03;4126337;28;21214;-85
2022/07/19 07:50:26;;;;;;;5.63;5.13;;;;;;;34.15;48.75;98516.44;4107275;28;21262;-85
2022/07/19 07:52:29;;;;;;;4.30;4.00;;;;;;;34.34;47.92;98507.81;4110957;28;20649;-85
2022/07/19 07:54:32;;;;;;;3.77;3.40;;;;;;;34.56;43.37;98506.09;4122307;28;20663;-86
2022/07/19 07:56:37;;;;;;;4.50;3.33;;;;;;;34.55;41.60;98504.44;4091577;28;20649;-86
2022/07/19 07:58:42;;;;;;;3.30;3.00;;;;;;;34.72;42.76;98508.81;4089933;28;20705;-86
2022/07/19 08:00:45;;;;;;;4.10;3.10;;;;;;;34.91;41.87;98505.63;4110167;28;20648;-86
2022/07/19 08:02:49;;;;;;;2.83;2.63;;;;;;;35.02;40.64;98498.47;4105990;28;20652;-85
2022/07/19 08:04:53;;;;;;;3.30;2.80;;;;;;;35.13;41.85;98508.41;4109252;28;20682;-85
2022/07/19 08:06:56;;;;;;;4.33;2.90;;;;;;;35.22;42.10;98506.91;4109271;28;20751;-86
2022/07/19 08:08:59;;;;;;;4.00;2.90;;;;;;;35.18;39.79;98497.59;4096206;28;20657;-86
2022/07/19 08:11:03;;;;;;;9.03;3.20;;;;;;;35.22;40.73;98505.00;4123819;28;20671;-86
2022/07/19 08:13:07;;;;;;;3.30;3.00;;;;;;;35.37;40.86;98506.06;4107808;28;20648;-86
2022/07/19 08:15:12;;;;;;;3.10;2.80;;;;;;;35.48;40.63;98504.31;4088297;28;20661;-85
2022/07/19 08:17:15;;;;;;;4.63;2.83;;;;;;;35.57;39.67;98498.16;4122964;28;20656;-86
2022/07/19 08:19:18;;;;;;;4.53;3.00;;;;;;;35.38;39.04;98501.47;4110714;28;20657;-86
2022/07/19 08:21:21;;;;;;;4.57;2.83;;;;;;;35.27;38.69;98494.19;4118908;28;20987;-85
2022/07/19 08:23:24;;;;;;;5.43;3.63;;;;;;;35.20;39.98;98493.59;4089052;28;21061;-85
2022/07/19 08:25:27;;;;;;;8.07;3.10;;;;;;;35.28;39.72;98493.94;4105990;28;20733;-85
2022/07/19 08:27:30;;;;;;;3.93;3.10;;;;;;;35.33;39.69;98494.03;4103453;28;20648;-86
2022/07/19 08:29:34;;;;;;;4.57;3.03;;;;;;;35.47;39.80;98495.34;4122225;28;21224;-86
2022/07/19 08:31:38;;;;;;;3.70;3.30;;;;;;;35.50;38.32;98483.97;4120860;28;21286;-85
2022/07/19 08:33:42;;;;;;;3.30;2.77;;;;;;;35.49;39.35;98486.94;4121982;28;21089;-86
2022/07/19 08:35:45;;;;;;;5.17;3.67;;;;;;;35.46;39.20;98482.81;4106542;28;20989;-85
2022/07/19 08:37:57;;;;;;;3.47;3.00;;;;;;;35.52;39.14;98491.88;4123830;28;20651;-86
2022/07/19 08:40:00;;;;;;;3.70;3.40;;;;;;;35.54;39.10;98484.28;4123541;28;21087;-85
2022/07/19 08:42:03;;;;;;;4.00;2.93;;;;;;;35.60;39.57;98480.56;4103879;28;20704;-86
2022/07/19 08:44:06;;;;;;;3.40;3.10;;;;;;;35.59;39.54;98478.91;4104907;28;20661;-85
2022/07/19 08:46:10;;;;;;;5.17;2.97;;;;;;;35.69;39.69;98479.03;4105318;28;20660;-85
2022/07/19 08:48:14;;;;;;;3.70;2.90;;;;;;;35.69;39.19;98495.34;4121096;28;21038;-85
2022/07/19 08:50:18;;;;;;;4.63;3.10;;;;;;;35.76;38.98;98479.69;4105181;28;20656;-85
2022/07/19 08:52:21;;;;;;;6.80;3.40;;;;;;;35.81;39.60;98480.56;4121771;28;20651;-86
2022/07/19 08:54:24;;;;;;;3.63;3.33;;;;;;;35.87;39.57;98485.81;4122167;28;20663;-86
2022/07/19 08:58:51;;;;;;;4.20;3.70;;;;;;;35.99;39.77;98491.91;4109010;28;21286;-86
2022/07/19 09:00:54;;;;;;;5.47;3.20;;;;;;;36.07;40.01;98487.91;4106277;28;20795;-84
2022/07/19 09:02:59;;;;;;;7.07;3.20;;;;;;;36.10;39.57;98490.13;4112619;28;20714;-86
2022/07/19 09:05:07;;;;;;;4.17;3.30;;;;;;;36.09;38.99;98488.50;4124116;28;20695;-86
2022/07/19 09:07:10;;;;;;;4.80;3.40;;;;;;;35.99;39.38;98477.50;4105632;28;20738;-85
2022/07/19 09:09:15;;;;;;;3.40;3.10;;;;;;;35.97;39.01;98485.94;4091260;28;20641;-85
2022/07/19 09:11:33;;;;;;;5.43;2.70;;;;;;;36.05;39.29;98481.94;4108311;28;21019;-85
2022/07/19 09:13:37;;;;;;;3.40;3.10;;;;;;;36.14;40.16;98478.47;4102286;28;20748;-85
2022/07/19 09:15:50;;;;;;;3.67;2.67;;;;;;;36.25;38.26;98482.94;4104478;28;20655;-85
2022/07/19 09:18:06;;;;;;;3.40;3.10;;;;;;;36.09;37.91;98485.78;4119024;28;20651;-86
2022/07/19 09:20:26;;;;;;;5.10;3.27;;;;;;;36.07;38.68;98486.03;4106122;28;20652;-86
2022/07/19 09:22:29;;;;;;;8.40;3.30;;;;;;;36.08;38.63;98486.84;4104580;28;20699;-85
2022/07/19 09:24:33;;;;;;;4.20;3.60;;;;;;;36.11;39.25;98470.84;4103556;28;21026;-85
2022/07/19 09:26:55;;;;;;;3.93;3.00;;;;;;;36.08;38.12;98470.53;4108062;28;20687;-86
2022/07/19 09:29:17;;;;;;;3.77;3.20;;;;;;;35.93;37.09;98476.63;4105160;28;20674;-86
2022/07/19 09:31:20;;;;;;;7.70;3.30;;;;;;;35.98;38.26;98479.41;4123885;28;21230;-86
2022/07/19 09:33:25;;;;;;;6.47;3.10;;;;;;;35.98;38.35;98471.28;4105812;28;20660;-86
2022/07/19 09:35:37;;;;;;;5.03;3.30;;;;;;;35.80;37.15;98468.88;4120844;28;20667;-85
2022/07/19 09:37:41;;;;;;;4.57;3.30;;;;;;;35.84;37.10;98469.19;4103829;28;21531;-86
2022/07/19 09:39:47;;;;;;;6.30;3.40;;;;;;;35.92;38.81;98468.72;4109092;28;20648;-86
2022/07/19 09:41:55;;;;;;;3.73;2.90;;;;;;;36.01;38.81;98465.31;4105837;28;20748;-85
2022/07/19 09:43:59;;;;;;;3.97;3.27;;;;;;;35.93;37.93;98468.47;4101692;28;20659;-85
2022/07/19 09:46:03;;;;;;;8.87;3.67;;;;;;;35.89;37.90;98472.78;4111534;28;20632;-85
2022/07/19 09:48:06;;;;;;;4.47;3.20;;;;;;;35.82;37.36;98461.28;4106202;28;20662;-86
2022/07/19 09:50:11;;;;;;;5.00;3.20;;;;;;;35.76;37.81;98471.53;4092052;29;20670;-85
2022/07/19 09:52:20;;;;;;;4.63;3.60;;;;;;;35.81;37.47;98467.81;4090000;29;20675;-85